ASL9FL LYBE-LYNI
Flight info
| Callsign | ASL9FL |
|---|---|
| Flight time | N/A |
| Altitude | 19000 |
| Route | VAL N131 SOSEK |
| Aircraft | B738/M-SDE2E3FGHIRWXY/LB1 |
Departure
| Time | 2026-05-04 13:46 |
|---|---|
| Airport | Belgrade Nikola Tesla Airport (LYBE) |
Arrival
| Time | N/A |
|---|---|
| Airport | Niš Constantine the Great Airport (LYNI) |
| Time | Latitude | Longitude | Altitude | Speed | Heading |
|---|---|---|---|---|---|
| 2026-05-04 13:23 | 44.81855 | 20.29211 | 323 ft | 0 kts | 280° |
| 2026-05-04 13:35 | 44.81852 | 20.29230 | 323 ft | 2 kts | 295° |
| 2026-05-04 13:36 | 44.81843 | 20.29249 | 323 ft | 2 kts | 316° |
| 2026-05-04 13:36 | 44.81830 | 20.29262 | 325 ft | 2 kts | 344° |
| 2026-05-04 13:36 | 44.81813 | 20.29265 | 324 ft | 2 kts | 6° |
| 2026-05-04 13:36 | 44.81798 | 20.29260 | 325 ft | 2 kts | 23° |
| 2026-05-04 13:37 | 44.81793 | 20.29257 | 324 ft | 0 kts | 28° |
| 2026-05-04 13:40 | 44.81805 | 20.29266 | 347 ft | 4 kts | 28° |
| 2026-05-04 13:40 | 44.81833 | 20.29288 | 328 ft | 6 kts | 32° |
| 2026-05-04 13:40 | 44.81867 | 20.29319 | 327 ft | 6 kts | 32° |
| 2026-05-04 13:40 | 44.81901 | 20.29349 | 326 ft | 6 kts | 32° |
| 2026-05-04 13:41 | 44.81937 | 20.29380 | 325 ft | 8 kts | 32° |
| 2026-05-04 13:41 | 44.81991 | 20.29429 | 326 ft | 10 kts | 32° |
| 2026-05-04 13:41 | 44.82049 | 20.29480 | 325 ft | 10 kts | 32° |
| 2026-05-04 13:42 | 44.82160 | 20.29485 | 327 ft | 9 kts | 308° |
| 2026-05-04 13:42 | 44.82195 | 20.29411 | 325 ft | 9 kts | 303° |
| 2026-05-04 13:42 | 44.82227 | 20.29338 | 325 ft | 9 kts | 301° |
| 2026-05-04 13:42 | 44.82259 | 20.29265 | 324 ft | 9 kts | 301° |
| 2026-05-04 13:43 | 44.82290 | 20.29194 | 324 ft | 8 kts | 301° |
| 2026-05-04 13:43 | 44.82321 | 20.29125 | 324 ft | 8 kts | 303° |
| 2026-05-04 13:43 | 44.82352 | 20.29059 | 323 ft | 8 kts | 303° |
| 2026-05-04 13:43 | 44.82381 | 20.28992 | 323 ft | 8 kts | 301° |
| 2026-05-04 13:44 | 44.82411 | 20.28923 | 322 ft | 10 kts | 305° |
| 2026-05-04 13:44 | 44.82467 | 20.28864 | 325 ft | 10 kts | 342° |
| 2026-05-04 13:44 | 44.82533 | 20.28877 | 325 ft | 10 kts | 30° |
| 2026-05-04 13:44 | 44.82584 | 20.28940 | 324 ft | 10 kts | 56° |
| 2026-05-04 13:45 | 44.82612 | 20.29026 | 322 ft | 10 kts | 71° |
| 2026-05-04 13:45 | 44.82620 | 20.29119 | 323 ft | 9 kts | 93° |
| 2026-05-04 13:45 | 44.82596 | 20.29203 | 322 ft | 9 kts | 111° |
| 2026-05-04 13:45 | 44.82569 | 20.29286 | 324 ft | 13 kts | 118° |
| 2026-05-04 13:46 | 44.82350 | 20.29786 | 325 ft | 107 kts | 122° |
| 2026-05-04 13:46 | 44.81824 | 20.31005 | 456 ft | 174 kts | 121° |
| 2026-05-04 13:46 | 44.81143 | 20.32573 | 1221 ft | 194 kts | 122° |
| 2026-05-04 13:46 | 44.80557 | 20.33834 | 3224 ft | 109 kts | 126° |
| 2026-05-04 13:47 | 44.80140 | 20.34762 | 4080 ft | 133 kts | 125° |
| 2026-05-04 13:47 | 44.79415 | 20.36238 | 3654 ft | 226 kts | 126° |
| 2026-05-04 13:47 | 44.78416 | 20.38171 | 4144 ft | 257 kts | 128° |
| 2026-05-04 13:47 | 44.77270 | 20.40262 | 4836 ft | 288 kts | 127° |
| 2026-05-04 13:48 | 44.76194 | 20.42739 | 5775 ft | 302 kts | 121° |
| 2026-05-04 13:48 | 44.74896 | 20.45147 | 6400 ft | 316 kts | 141° |
| 2026-05-04 13:48 | 44.72935 | 20.46464 | 7265 ft | 320 kts | 164° |
| 2026-05-04 13:48 | 44.70733 | 20.47249 | 8047 ft | 331 kts | 165° |
| 2026-05-04 13:49 | 44.68470 | 20.48072 | 8833 ft | 340 kts | 163° |
| 2026-05-04 13:49 | 44.66177 | 20.48983 | 9714 ft | 346 kts | 161° |
| 2026-05-04 13:49 | 44.63853 | 20.49989 | 10546 ft | 351 kts | 160° |
| 2026-05-04 13:49 | 44.61520 | 20.51064 | 11409 ft | 355 kts | 159° |
| 2026-05-04 13:50 | 44.59174 | 20.52187 | 12264 ft | 359 kts | 159° |
| 2026-05-04 13:50 | 44.56802 | 20.53349 | 13084 ft | 363 kts | 158° |
| 2026-05-04 13:50 | 44.54402 | 20.54539 | 13903 ft | 368 kts | 158° |
| 2026-05-04 13:50 | 44.51966 | 20.55753 | 14633 ft | 373 kts | 158° |
| 2026-05-04 13:51 | 44.49503 | 20.56983 | 15372 ft | 378 kts | 158° |
| 2026-05-04 13:51 | 44.47011 | 20.58229 | 16106 ft | 383 kts | 158° |
| 2026-05-04 13:51 | 44.44515 | 20.59475 | 16804 ft | 388 kts | 158° |
| 2026-05-04 13:51 | 44.41956 | 20.60752 | 17537 ft | 392 kts | 158° |
| 2026-05-04 13:52 | 44.36757 | 20.63340 | 18852 ft | 402 kts | 158° |
| 2026-05-04 13:52 | 44.34101 | 20.64661 | 19085 ft | 405 kts | 158° |
| 2026-05-04 13:52 | 44.31447 | 20.65979 | 19102 ft | 405 kts | 158° |
| 2026-05-04 13:53 | 44.28792 | 20.67296 | 19114 ft | 405 kts | 158° |
| 2026-05-04 13:53 | 44.26130 | 20.68616 | 19121 ft | 405 kts | 158° |
| 2026-05-04 13:53 | 44.23463 | 20.69937 | 19121 ft | 406 kts | 158° |
| 2026-05-04 13:54 | 44.18165 | 20.72559 | 19112 ft | 407 kts | 158° |
| 2026-05-04 13:54 | 44.15496 | 20.73877 | 19113 ft | 407 kts | 158° |
| 2026-05-04 13:54 | 44.10219 | 20.76733 | 19109 ft | 406 kts | 154° |
| 2026-05-04 13:55 | 44.07319 | 20.78468 | 19115 ft | 405 kts | 154° |
| 2026-05-04 13:55 | 43.87620 | 20.90071 | 19127 ft | 406 kts | 154° |
| 2026-05-04 13:55 | 43.80156 | 20.94405 | 19098 ft | 407 kts | 154° |
| 2026-05-04 13:56 | 43.75799 | 20.98989 | 19138 ft | 391 kts | 124° |
| 2026-05-04 13:56 | 43.72195 | 21.04717 | 19110 ft | 394 kts | 127° |
| 2026-05-04 13:56 | 43.64827 | 21.15868 | 18779 ft | 386 kts | 127° |
| 2026-05-04 13:57 | 43.61237 | 21.21328 | 17687 ft | 383 kts | 128° |
| 2026-05-04 13:57 | 43.57780 | 21.26575 | 17277 ft | 361 kts | 128° |
| 2026-05-04 13:58 | 43.53384 | 21.43233 | 16047 ft | 301 kts | 90° |
| 2026-05-04 13:58 | 43.43982 | 21.78260 | 14091 ft | 271 kts | 123° |
| 2026-05-04 13:58 | 43.09428 | 22.27120 | 7559 ft | 228 kts | 122° |
| 2026-05-04 13:59 | 43.00411 | 22.51065 | 3608 ft | 0 kts | 65° |